sensor_id;sensor_type;location;lat;lon;timestamp;temperature;humidity
8459;DHT22;4266;48.816;9.154;2024-01-16T00:02:00;-0.10;65.40
8459;DHT22;4266;48.816;9.154;2024-01-16T00:04:26;-0.10;65.40
8459;DHT22;4266;48.816;9.154;2024-01-16T00:06:52;-0.10;65.40
8459;DHT22;4266;48.816;9.154;2024-01-16T00:09:18;-0.10;65.20
8459;DHT22;4266;48.816;9.154;2024-01-16T00:11:43;-0.10;65.30
8459;DHT22;4266;48.816;9.154;2024-01-16T00:14:10;-0.10;65.20
8459;DHT22;4266;48.816;9.154;2024-01-16T00:16:45;-0.10;65.20
8459;DHT22;4266;48.816;9.154;2024-01-16T00:19:10;-0.10;65.20
8459;DHT22;4266;48.816;9.154;2024-01-16T00:21:39;-0.20;65.70
8459;DHT22;4266;48.816;9.154;2024-01-16T00:24:04;-0.20;65.50
8459;DHT22;4266;48.816;9.154;2024-01-16T00:26:30;-0.20;65.40
8459;DHT22;4266;48.816;9.154;2024-01-16T00:28:56;-0.20;65.30
8459;DHT22;4266;48.816;9.154;2024-01-16T00:31:21;-0.30;64.90
8459;DHT22;4266;48.816;9.154;2024-01-16T00:33:47;-0.30;65.10
8459;DHT22;4266;48.816;9.154;2024-01-16T00:36:13;-0.30;65.10
8459;DHT22;4266;48.816;9.154;2024-01-16T00:38:39;-0.30;65.10
8459;DHT22;4266;48.816;9.154;2024-01-16T00:41:05;-0.30;64.80
8459;DHT22;4266;48.816;9.154;2024-01-16T00:43:30;-0.30;65.60
8459;DHT22;4266;48.816;9.154;2024-01-16T00:45:56;-0.40;65.60
8459;DHT22;4266;48.816;9.154;2024-01-16T00:48:22;-0.40;65.50
8459;DHT22;4266;48.816;9.154;2024-01-16T00:50:47;-0.40;65.20
8459;DHT22;4266;48.816;9.154;2024-01-16T00:53:13;-0.40;66.20
8459;DHT22;4266;48.816;9.154;2024-01-16T00:55:39;-0.40;66.10
8459;DHT22;4266;48.816;9.154;2024-01-16T00:58:04;-0.40;65.90
8459;DHT22;4266;48.816;9.154;2024-01-16T01:00:31;-0.40;66.40
8459;DHT22;4266;48.816;9.154;2024-01-16T01:02:57;-0.40;66.30
8459;DHT22;4266;48.816;9.154;2024-01-16T01:05:23;-0.40;66.80
8459;DHT22;4266;48.816;9.154;2024-01-16T01:07:49;-0.30;66.50
8459;DHT22;4266;48.816;9.154;2024-01-16T01:10:14;-0.30;66.40
8459;DHT22;4266;48.816;9.154;2024-01-16T01:12:40;-0.40;66.30
8459;DHT22;4266;48.816;9.154;2024-01-16T01:15:06;-0.40;66.60
8459;DHT22;4266;48.816;9.154;2024-01-16T01:17:32;-0.30;66.90
8459;DHT22;4266;48.816;9.154;2024-01-16T01:19:58;-0.30;66.70
8459;DHT22;4266;48.816;9.154;2024-01-16T01:22:24;-0.20;66.90
8459;DHT22;4266;48.816;9.154;2024-01-16T01:24:49;-0.30;66.70
8459;DHT22;4266;48.816;9.154;2024-01-16T01:27:16;-0.40;67.10
8459;DHT22;4266;48.816;9.154;2024-01-16T01:29:41;-0.50;67.00
8459;DHT22;4266;48.816;9.154;2024-01-16T01:32:07;-0.50;66.90
8459;DHT22;4266;48.816;9.154;2024-01-16T01:34:33;-0.60;67.20
8459;DHT22;4266;48.816;9.154;2024-01-16T01:36:59;-0.60;67.20
8459;DHT22;4266;48.816;9.154;2024-01-16T01:39:25;-0.60;67.10
8459;DHT22;4266;48.816;9.154;2024-01-16T01:41:51;-0.60;67.10
8459;DHT22;4266;48.816;9.154;2024-01-16T01:44:17;-0.60;67.30
8459;DHT22;4266;48.816;9.154;2024-01-16T01:46:42;-0.60;67.30
8459;DHT22;4266;48.816;9.154;2024-01-16T01:49:08;-0.70;67.80
8459;DHT22;4266;48.816;9.154;2024-01-16T01:51:34;-0.60;67.70
8459;DHT22;4266;48.816;9.154;2024-01-16T01:54:00;-0.60;67.70
8459;DHT22;4266;48.816;9.154;2024-01-16T01:56:26;-0.70;67.70
8459;DHT22;4266;48.816;9.154;2024-01-16T01:58:53;-0.70;67.70
8459;DHT22;4266;48.816;9.154;2024-01-16T02:01:17;-0.70;68.00
8459;DHT22;4266;48.816;9.154;2024-01-16T02:03:44;-0.70;68.30
8459;DHT22;4266;48.816;9.154;2024-01-16T02:06:11;-0.80;68.30
8459;DHT22;4266;48.816;9.154;2024-01-16T02:08:37;-0.80;68.00
8459;DHT22;4266;48.816;9.154;2024-01-16T02:11:02;-0.80;68.40
8459;DHT22;4266;48.816;9.154;2024-01-16T02:13:28;-0.90;68.30
8459;DHT22;4266;48.816;9.154;2024-01-16T02:15:54;-1.00;68.40
8459;DHT22;4266;48.816;9.154;2024-01-16T02:18:19;-1.00;68.70
8459;DHT22;4266;48.816;9.154;2024-01-16T02:20:45;-1.00;69.20
8459;DHT22;4266;48.816;9.154;2024-01-16T02:23:12;-1.10;69.30
8459;DHT22;4266;48.816;9.154;2024-01-16T02:25:38;-1.20;69.20
8459;DHT22;4266;48.816;9.154;2024-01-16T02:28:03;-1.20;69.30
8459;DHT22;4266;48.816;9.154;2024-01-16T02:30:29;-1.20;69.40
8459;DHT22;4266;48.816;9.154;2024-01-16T02:32:55;-1.20;69.40
8459;DHT22;4266;48.816;9.154;2024-01-16T02:35:20;-1.30;69.40
8459;DHT22;4266;48.816;9.154;2024-01-16T02:37:46;-1.30;69.70
8459;DHT22;4266;48.816;9.154;2024-01-16T02:40:12;-1.30;69.90
8459;DHT22;4266;48.816;9.154;2024-01-16T02:42:38;-1.30;69.90
8459;DHT22;4266;48.816;9.154;2024-01-16T02:45:05;-1.40;70.30
8459;DHT22;4266;48.816;9.154;2024-01-16T02:47:32;-1.50;70.60
8459;DHT22;4266;48.816;9.154;2024-01-16T02:49:57;-1.50;70.50
8459;DHT22;4266;48.816;9.154;2024-01-16T02:52:23;-1.60;70.70
8459;DHT22;4266;48.816;9.154;2024-01-16T02:54:48;-1.50;71.00
8459;DHT22;4266;48.816;9.154;2024-01-16T02:57:15;-1.70;71.20
8459;DHT22;4266;48.816;9.154;2024-01-16T02:59:43;-1.70;71.20
8459;DHT22;4266;48.816;9.154;2024-01-16T03:02:06;-1.70;71.70
8459;DHT22;4266;48.816;9.154;2024-01-16T03:04:32;-1.70;72.30
8459;DHT22;4266;48.816;9.154;2024-01-16T03:06:58;-1.70;72.70
8459;DHT22;4266;48.816;9.154;2024-01-16T03:09:25;-1.80;72.50
8459;DHT22;4266;48.816;9.154;2024-01-16T03:11:50;-1.80;72.50
8459;DHT22;4266;48.816;9.154;2024-01-16T03:14:16;-1.80;72.30
8459;DHT22;4266;48.816;9.154;2024-01-16T03:16:42;-1.80;72.50
8459;DHT22;4266;48.816;9.154;2024-01-16T03:19:07;-1.80;72.50
8459;DHT22;4266;48.816;9.154;2024-01-16T03:21:34;-1.90;72.50
8459;DHT22;4266;48.816;9.154;2024-01-16T03:23:59;-1.90;72.50
8459;DHT22;4266;48.816;9.154;2024-01-16T03:26:25;-1.90;72.70
8459;DHT22;4266;48.816;9.154;2024-01-16T03:28:51;-1.90;73.10
8459;DHT22;4266;48.816;9.154;2024-01-16T03:31:16;-1.90;73.40
8459;DHT22;4266;48.816;9.154;2024-01-16T03:33:42;-2.00;73.60
8459;DHT22;4266;48.816;9.154;2024-01-16T03:36:09;-2.00;74.00
8459;DHT22;4266;48.816;9.154;2024-01-16T03:38:33;-2.00;74.30
8459;DHT22;4266;48.816;9.154;2024-01-16T03:40:59;-2.00;74.00
8459;DHT22;4266;48.816;9.154;2024-01-16T03:43:25;-2.10;74.70
8459;DHT22;4266;48.816;9.154;2024-01-16T03:45:50;-2.10;75.00
8459;DHT22;4266;48.816;9.154;2024-01-16T03:48:16;-2.10;75.00
8459;DHT22;4266;48.816;9.154;2024-01-16T03:50:42;-2.10;75.60
8459;DHT22;4266;48.816;9.154;2024-01-16T03:53:07;-2.20;76.10
8459;DHT22;4266;48.816;9.154;2024-01-16T03:55:34;-2.20;76.70
8459;DHT22;4266;48.816;9.154;2024-01-16T03:57:59;-2.30;76.60
8459;DHT22;4266;48.816;9.154;2024-01-16T04:00:25;-2.20;76.40
8459;DHT22;4266;48.816;9.154;2024-01-16T04:02:51;-2.20;76.60
8459;DHT22;4266;48.816;9.154;2024-01-16T04:05:18;-2.30;76.70
8459;DHT22;4266;48.816;9.154;2024-01-16T04:07:43;-2.30;76.70
8459;DHT22;4266;48.816;9.154;2024-01-16T04:10:10;-2.40;77.10
8459;DHT22;4266;48.816;9.154;2024-01-16T04:12:35;-2.40;77.10
8459;DHT22;4266;48.816;9.154;2024-01-16T04:15:01;-2.40;77.20
8459;DHT22;4266;48.816;9.154;2024-01-16T04:17:27;-2.50;78.30
8459;DHT22;4266;48.816;9.154;2024-01-16T04:19:52;-2.50;77.90
8459;DHT22;4266;48.816;9.154;2024-01-16T04:22:19;-2.50;79.10
8459;DHT22;4266;48.816;9.154;2024-01-16T04:24:44;-2.60;78.90
8459;DHT22;4266;48.816;9.154;2024-01-16T04:27:10;-2.50;79.10
8459;DHT22;4266;48.816;9.154;2024-01-16T04:29:36;-2.60;78.80
8459;DHT22;4266;48.816;9.154;2024-01-16T04:32:01;-2.60;79.30
8459;DHT22;4266;48.816;9.154;2024-01-16T04:34:28;-2.60;80.00
8459;DHT22;4266;48.816;9.154;2024-01-16T04:36:54;-2.60;80.00
8459;DHT22;4266;48.816;9.154;2024-01-16T04:39:19;-2.70;80.10
8459;DHT22;4266;48.816;9.154;2024-01-16T04:41:45;-2.70;79.90
8459;DHT22;4266;48.816;9.154;2024-01-16T04:44:11;-2.70;79.90
8459;DHT22;4266;48.816;9.154;2024-01-16T04:46:36;-2.70;80.00
8459;DHT22;4266;48.816;9.154;2024-01-16T04:49:02;-2.70;80.00
8459;DHT22;4266;48.816;9.154;2024-01-16T04:51:28;-2.60;79.50
8459;DHT22;4266;48.816;9.154;2024-01-16T04:53:53;-2.60;78.90
8459;DHT22;4266;48.816;9.154;2024-01-16T04:56:20;-2.60;79.30
8459;DHT22;4266;48.816;9.154;2024-01-16T04:58:45;-2.70;79.20
8459;DHT22;4266;48.816;9.154;2024-01-16T05:01:12;-2.70;79.10
8459;DHT22;4266;48.816;9.154;2024-01-16T05:03:38;-2.70;79.10
8459;DHT22;4266;48.816;9.154;2024-01-16T05:06:03;-2.70;79.50
8459;DHT22;4266;48.816;9.154;2024-01-16T05:08:29;-2.60;78.80
8459;DHT22;4266;48.816;9.154;2024-01-16T05:10:55;-2.70;78.90
8459;DHT22;4266;48.816;9.154;2024-01-16T05:13:21;-2.60;78.80
8459;DHT22;4266;48.816;9.154;2024-01-16T05:15:47;-2.60;78.70
8459;DHT22;4266;48.816;9.154;2024-01-16T05:18:13;-2.60;78.50
8459;DHT22;4266;48.816;9.154;2024-01-16T05:20:39;-2.60;78.50
8459;DHT22;4266;48.816;9.154;2024-01-16T05:23:05;-2.60;77.90
8459;DHT22;4266;48.816;9.154;2024-01-16T05:25:30;-2.70;78.00
8459;DHT22;4266;48.816;9.154;2024-01-16T05:27:57;-2.70;78.40
8459;DHT22;4266;48.816;9.154;2024-01-16T05:30:22;-2.70;78.40
8459;DHT22;4266;48.816;9.154;2024-01-16T05:32:49;-2.70;78.30
8459;DHT22;4266;48.816;9.154;2024-01-16T05:35:15;-2.70;78.30
8459;DHT22;4266;48.816;9.154;2024-01-16T05:37:40;-2.80;78.90
8459;DHT22;4266;48.816;9.154;2024-01-16T05:40:08;-2.80;79.50
8459;DHT22;4266;48.816;9.154;2024-01-16T05:42:34;-2.90;79.40
8459;DHT22;4266;48.816;9.154;2024-01-16T05:44:59;-2.90;79.30
8459;DHT22;4266;48.816;9.154;2024-01-16T05:47:25;-2.90;79.20
8459;DHT22;4266;48.816;9.154;2024-01-16T05:49:52;-2.70;79.20
8459;DHT22;4266;48.816;9.154;2024-01-16T05:52:17;-2.80;79.10
8459;DHT22;4266;48.816;9.154;2024-01-16T05:54:43;-2.60;78.00
8459;DHT22;4266;48.816;9.154;2024-01-16T05:57:09;-2.50;78.40
8459;DHT22;4266;48.816;9.154;2024-01-16T05:59:35;-2.50;78.40
8459;DHT22;4266;48.816;9.154;2024-01-16T06:02:01;-2.60;78.90
8459;DHT22;4266;48.816;9.154;2024-01-16T06:04:27;-2.60;78.90
8459;DHT22;4266;48.816;9.154;2024-01-16T06:06:53;-2.50;77.80
8459;DHT22;4266;48.816;9.154;2024-01-16T06:09:19;-2.50;77.80
8459;DHT22;4266;48.816;9.154;2024-01-16T06:11:45;-2.40;77.00
8459;DHT22;4266;48.816;9.154;2024-01-16T06:14:11;-2.40;77.00
8459;DHT22;4266;48.816;9.154;2024-01-16T06:16:37;-2.30;76.30
8459;DHT22;4266;48.816;9.154;2024-01-16T06:19:03;-2.30;76.20
8459;DHT22;4266;48.816;9.154;2024-01-16T06:21:29;-2.30;76.30
8459;DHT22;4266;48.816;9.154;2024-01-16T06:23:54;-2.20;76.10
8459;DHT22;4266;48.816;9.154;2024-01-16T06:26:20;-2.30;76.50
8459;DHT22;4266;48.816;9.154;2024-01-16T06:28:46;-2.40;76.20
8459;DHT22;4266;48.816;9.154;2024-01-16T06:31:11;-2.40;76.70
8459;DHT22;4266;48.816;9.154;2024-01-16T06:33:37;-2.50;75.30
8459;DHT22;4266;48.816;9.154;2024-01-16T06:36:04;-2.50;75.30
8459;DHT22;4266;48.816;9.154;2024-01-16T06:38:30;-2.50;75.40
8459;DHT22;4266;48.816;9.154;2024-01-16T06:40:55;-2.60;74.70
8459;DHT22;4266;48.816;9.154;2024-01-16T06:43:21;-2.50;75.00
8459;DHT22;4266;48.816;9.154;2024-01-16T06:45:46;-2.60;74.60
8459;DHT22;4266;48.816;9.154;2024-01-16T06:48:12;-2.60;73.90
8459;DHT22;4266;48.816;9.154;2024-01-16T06:50:38;-2.50;73.10
8459;DHT22;4266;48.816;9.154;2024-01-16T06:53:04;-2.50;72.00
8459;DHT22;4266;48.816;9.154;2024-01-16T06:55:30;-2.50;72.00
8459;DHT22;4266;48.816;9.154;2024-01-16T06:57:56;-2.40;71.50
8459;DHT22;4266;48.816;9.154;2024-01-16T07:00:22;-2.40;71.50
8459;DHT22;4266;48.816;9.154;2024-01-16T07:02:48;-2.20;70.80
8459;DHT22;4266;48.816;9.154;2024-01-16T07:05:14;-2.30;70.60
8459;DHT22;4266;48.816;9.154;2024-01-16T07:07:40;-2.20;70.30
8459;DHT22;4266;48.816;9.154;2024-01-16T07:10:06;-2.20;70.10
8459;DHT22;4266;48.816;9.154;2024-01-16T07:12:34;-2.20;69.60
8459;DHT22;4266;48.816;9.154;2024-01-16T07:15:00;-2.20;69.60
8459;DHT22;4266;48.816;9.154;2024-01-16T07:17:26;-2.10;68.90
8459;DHT22;4266;48.816;9.154;2024-01-16T07:19:52;-2.10;67.60
8459;DHT22;4266;48.816;9.154;2024-01-16T07:22:18;-2.10;67.50
8459;DHT22;4266;48.816;9.154;2024-01-16T07:24:44;-2.10;67.60
8459;DHT22;4266;48.816;9.154;2024-01-16T07:27:10;-2.10;67.60
8459;DHT22;4266;48.816;9.154;2024-01-16T07:29:36;-2.10;66.90
8459;DHT22;4266;48.816;9.154;2024-01-16T07:32:01;-2.10;66.00
8459;DHT22;4266;48.816;9.154;2024-01-16T07:34:27;-2.10;65.40
8459;DHT22;4266;48.816;9.154;2024-01-16T07:36:53;-2.10;65.40
8459;DHT22;4266;48.816;9.154;2024-01-16T07:39:18;-2.00;65.10
8459;DHT22;4266;48.816;9.154;2024-01-16T07:41:44;-2.00;64.70
8459;DHT22;4266;48.816;9.154;2024-01-16T07:44:11;-1.80;63.40
8459;DHT22;4266;48.816;9.154;2024-01-16T07:46:36;-1.90;63.30
8459;DHT22;4266;48.816;9.154;2024-01-16T07:49:02;-1.80;63.10
8459;DHT22;4266;48.816;9.154;2024-01-16T07:51:28;-1.70;62.70
8459;DHT22;4266;48.816;9.154;2024-01-16T07:54:04;-1.70;62.70
8459;DHT22;4266;48.816;9.154;2024-01-16T07:56:19;-1.60;62.60
8459;DHT22;4266;48.816;9.154;2024-01-16T07:58:46;-1.40;62.60
8459;DHT22;4266;48.816;9.154;2024-01-16T08:01:12;-1.50;62.50
8459;DHT22;4266;48.816;9.154;2024-01-16T08:03:38;-1.20;62.70
8459;DHT22;4266;48.816;9.154;2024-01-16T08:06:04;-1.20;62.60
8459;DHT22;4266;48.816;9.154;2024-01-16T08:08:29;-1.20;60.80
8459;DHT22;4266;48.816;9.154;2024-01-16T08:10:55;-1.00;60.70
8459;DHT22;4266;48.816;9.154;2024-01-16T08:13:21;-0.90;60.70
8459;DHT22;4266;48.816;9.154;2024-01-16T08:15:46;-0.80;59.90
8459;DHT22;4266;48.816;9.154;2024-01-16T08:18:12;-0.70;59.30
8459;DHT22;4266;48.816;9.154;2024-01-16T08:20:38;-0.60;59.00
8459;DHT22;4266;48.816;9.154;2024-01-16T08:23:03;-0.50;59.20
8459;DHT22;4266;48.816;9.154;2024-01-16T08:25:29;-0.30;58.80
8459;DHT22;4266;48.816;9.154;2024-01-16T08:27:54;0.00;57.80
8459;DHT22;4266;48.816;9.154;2024-01-16T08:30:20;0.40;57.40
8459;DHT22;4266;48.816;9.154;2024-01-16T08:32:46;0.60;57.50
8459;DHT22;4266;48.816;9.154;2024-01-16T08:35:12;0.40;55.70
8459;DHT22;4266;48.816;9.154;2024-01-16T08:37:38;0.40;55.70
8459;DHT22;4266;48.816;9.154;2024-01-16T08:40:04;0.40;56.60
8459;DHT22;4266;48.816;9.154;2024-01-16T08:42:31;0.40;55.60
8459;DHT22;4266;48.816;9.154;2024-01-16T08:44:56;0.30;55.70
8459;DHT22;4266;48.816;9.154;2024-01-16T08:47:22;0.30;55.30
8459;DHT22;4266;48.816;9.154;2024-01-16T08:49:48;0.30;56.40
8459;DHT22;4266;48.816;9.154;2024-01-16T08:52:14;0.30;56.00
8459;DHT22;4266;48.816;9.154;2024-01-16T08:54:40;0.30;56.00
8459;DHT22;4266;48.816;9.154;2024-01-16T08:57:05;0.50;55.60
8459;DHT22;4266;48.816;9.154;2024-01-16T08:59:32;0.60;56.50
8459;DHT22;4266;48.816;9.154;2024-01-16T09:01:57;0.60;56.50
8459;DHT22;4266;48.816;9.154;2024-01-16T09:04:24;0.70;55.70
8459;DHT22;4266;48.816;9.154;2024-01-16T09:06:49;0.60;55.70
8459;DHT22;4266;48.816;9.154;2024-01-16T09:09:15;0.80;55.20
8459;DHT22;4266;48.816;9.154;2024-01-16T09:11:41;0.60;55.80
8459;DHT22;4266;48.816;9.154;2024-01-16T09:14:06;0.80;55.80
8459;DHT22;4266;48.816;9.154;2024-01-16T09:16:32;1.00;55.70
8459;DHT22;4266;48.816;9.154;2024-01-16T09:18:58;1.30;54.40
8459;DHT22;4266;48.816;9.154;2024-01-16T09:21:24;1.30;54.40
8459;DHT22;4266;48.816;9.154;2024-01-16T09:23:50;1.50;54.50
8459;DHT22;4266;48.816;9.154;2024-01-16T09:26:15;1.40;54.20
8459;DHT22;4266;48.816;9.154;2024-01-16T09:28:41;1.30;53.70
8459;DHT22;4266;48.816;9.154;2024-01-16T09:31:07;1.60;53.60
8459;DHT22;4266;48.816;9.154;2024-01-16T09:33:33;1.60;53.80
8459;DHT22;4266;48.816;9.154;2024-01-16T09:35:59;1.70;53.80
8459;DHT22;4266;48.816;9.154;2024-01-16T09:38:24;1.80;53.50
8459;DHT22;4266;48.816;9.154;2024-01-16T09:40:51;2.20;52.90
8459;DHT22;4266;48.816;9.154;2024-01-16T09:43:17;2.30;51.50
8459;DHT22;4266;48.816;9.154;2024-01-16T09:45:44;2.50;52.80
8459;DHT22;4266;48.816;9.154;2024-01-16T09:48:09;2.50;52.80
8459;DHT22;4266;48.816;9.154;2024-01-16T09:50:35;2.80;51.20
8459;DHT22;4266;48.816;9.154;2024-01-16T09:53:00;3.20;50.70
8459;DHT22;4266;48.816;9.154;2024-01-16T09:55:26;3.80;50.80
8459;DHT22;4266;48.816;9.154;2024-01-16T09:57:52;4.50;50.80
8459;DHT22;4266;48.816;9.154;2024-01-16T10:00:18;4.80;48.00
8459;DHT22;4266;48.816;9.154;2024-01-16T10:02:44;4.80;47.90
8459;DHT22;4266;48.816;9.154;2024-01-16T10:05:11;5.00;48.00
8459;DHT22;4266;48.816;9.154;2024-01-16T10:07:37;5.00;48.00
8459;DHT22;4266;48.816;9.154;2024-01-16T10:10:03;4.90;46.90
8459;DHT22;4266;48.816;9.154;2024-01-16T10:12:29;4.80;46.30
8459;DHT22;4266;48.816;9.154;2024-01-16T10:14:55;4.90;46.20
8459;DHT22;4266;48.816;9.154;2024-01-16T10:17:20;5.50;46.00
8459;DHT22;4266;48.816;9.154;2024-01-16T10:19:49;5.20;45.40
8459;DHT22;4266;48.816;9.154;2024-01-16T10:22:19;5.20;44.60
8459;DHT22;4266;48.816;9.154;2024-01-16T10:24:40;5.20;44.60
8459;DHT22;4266;48.816;9.154;2024-01-16T10:27:06;5.30;44.40
8459;DHT22;4266;48.816;9.154;2024-01-16T10:29:32;5.30;44.40
8459;DHT22;4266;48.816;9.154;2024-01-16T10:31:58;6.00;44.70
8459;DHT22;4266;48.816;9.154;2024-01-16T10:34:24;6.00;44.60
8459;DHT22;4266;48.816;9.154;2024-01-16T10:36:51;8.00;44.50
8459;DHT22;4266;48.816;9.154;2024-01-16T10:39:16;8.00;44.00
8459;DHT22;4266;48.816;9.154;2024-01-16T10:41:53;11.30;39.60
8459;DHT22;4266;48.816;9.154;2024-01-16T10:44:12;11.30;39.50
8459;DHT22;4266;48.816;9.154;2024-01-16T10:46:45;11.60;37.80
8459;DHT22;4266;48.816;9.154;2024-01-16T10:49:11;11.90;38.20
8459;DHT22;4266;48.816;9.154;2024-01-16T10:51:37;11.90;38.00
8459;DHT22;4266;48.816;9.154;2024-01-16T10:54:03;14.10;35.80
8459;DHT22;4266;48.816;9.154;2024-01-16T10:56:29;14.40;34.90
8459;DHT22;4266;48.816;9.154;2024-01-16T10:59:31;15.60;34.00
8459;DHT22;4266;48.816;9.154;2024-01-16T11:01:39;14.80;32.10
8459;DHT22;4266;48.816;9.154;2024-01-16T11:04:05;15.80;32.60
8459;DHT22;4266;48.816;9.154;2024-01-16T11:06:31;15.80;32.50
8459;DHT22;4266;48.816;9.154;2024-01-16T11:08:56;16.20;32.40
8459;DHT22;4266;48.816;9.154;2024-01-16T11:11:22;17.20;31.90
8459;DHT22;4266;48.816;9.154;2024-01-16T11:13:48;17.20;31.00
8459;DHT22;4266;48.816;9.154;2024-01-16T11:16:14;15.40;30.70
8459;DHT22;4266;48.816;9.154;2024-01-16T11:18:41;16.00;30.90
8459;DHT22;4266;48.816;9.154;2024-01-16T11:21:09;17.20;31.30
8459;DHT22;4266;48.816;9.154;2024-01-16T11:23:33;17.10;31.20
8459;DHT22;4266;48.816;9.154;2024-01-16T11:25:59;16.10;31.20
8459;DHT22;4266;48.816;9.154;2024-01-16T11:28:27;16.10;31.20
8459;DHT22;4266;48.816;9.154;2024-01-16T11:30:53;15.20;30.80
8459;DHT22;4266;48.816;9.154;2024-01-16T11:36:52;16.00;30.30
8459;DHT22;4266;48.816;9.154;2024-01-16T11:39:00;16.00;30.20
8459;DHT22;4266;48.816;9.154;2024-01-16T11:44:04;13.70;30.00
8459;DHT22;4266;48.816;9.154;2024-01-16T11:46:59;13.70;30.00
8459;DHT22;4266;48.816;9.154;2024-01-16T11:49:02;16.80;30.80
8459;DHT22;4266;48.816;9.154;2024-01-16T11:51:27;16.50;30.90
8459;DHT22;4266;48.816;9.154;2024-01-16T11:53:53;15.70;30.50
8459;DHT22;4266;48.816;9.154;2024-01-16T11:56:31;15.50;30.30
8459;DHT22;4266;48.816;9.154;2024-01-16T11:59:01;15.20;30.00
8459;DHT22;4266;48.816;9.154;2024-01-16T12:01:24;15.80;30.00
8459;DHT22;4266;48.816;9.154;2024-01-16T12:04:05;15.80;30.00
8459;DHT22;4266;48.816;9.154;2024-01-16T12:06:31;15.80;29.80
8459;DHT22;4266;48.816;9.154;2024-01-16T12:11:34;15.90;29.90
8459;DHT22;4266;48.816;9.154;2024-01-16T12:14:01;14.20;29.90
8459;DHT22;4266;48.816;9.154;2024-01-16T12:16:26;15.30;31.10
8459;DHT22;4266;48.816;9.154;2024-01-16T12:19:03;15.50;30.30
8459;DHT22;4266;48.816;9.154;2024-01-16T12:21:18;14.90;29.50
8459;DHT22;4266;48.816;9.154;2024-01-16T12:23:44;15.10;29.40
8459;DHT22;4266;48.816;9.154;2024-01-16T12:26:13;15.10;29.40
8459;DHT22;4266;48.816;9.154;2024-01-16T12:28:36;15.40;29.30
8459;DHT22;4266;48.816;9.154;2024-01-16T12:31:02;14.20;29.30
8459;DHT22;4266;48.816;9.154;2024-01-16T12:33:28;14.20;29.20
8459;DHT22;4266;48.816;9.154;2024-01-16T12:36:01;14.00;29.40
8459;DHT22;4266;48.816;9.154;2024-01-16T12:38:26;14.00;29.40
8459;DHT22;4266;48.816;9.154;2024-01-16T12:40:51;14.30;29.00
8459;DHT22;4266;48.816;9.154;2024-01-16T12:43:17;13.90;28.70
8459;DHT22;4266;48.816;9.154;2024-01-16T12:45:43;15.00;28.90
8459;DHT22;4266;48.816;9.154;2024-01-16T12:48:08;15.00;29.20
8459;DHT22;4266;48.816;9.154;2024-01-16T12:50:35;14.70;29.00
8459;DHT22;4266;48.816;9.154;2024-01-16T12:53:04;14.70;29.00
8459;DHT22;4266;48.816;9.154;2024-01-16T12:55:29;14.80;29.10
8459;DHT22;4266;48.816;9.154;2024-01-16T13:00:33;14.10;28.90
8459;DHT22;4266;48.816;9.154;2024-01-16T13:02:59;14.10;28.90
8459;DHT22;4266;48.816;9.154;2024-01-16T13:05:25;12.20;29.00
8459;DHT22;4266;48.816;9.154;2024-01-16T13:10:22;14.40;29.10
8459;DHT22;4266;48.816;9.154;2024-01-16T13:12:48;13.20;28.70
8459;DHT22;4266;48.816;9.154;2024-01-16T13:15:13;12.40;29.00
8459;DHT22;4266;48.816;9.154;2024-01-16T13:17:39;13.20;29.30
8459;DHT22;4266;48.816;9.154;2024-01-16T13:20:09;11.20;29.20
8459;DHT22;4266;48.816;9.154;2024-01-16T13:22:41;12.80;29.30
8459;DHT22;4266;48.816;9.154;2024-01-16T13:25:07;12.20;29.20
8459;DHT22;4266;48.816;9.154;2024-01-16T13:27:33;12.00;29.00
8459;DHT22;4266;48.816;9.154;2024-01-16T13:29:58;13.00;29.80
8459;DHT22;4266;48.816;9.154;2024-01-16T13:32:24;13.00;28.90
8459;DHT22;4266;48.816;9.154;2024-01-16T13:34:50;13.60;29.40
8459;DHT22;4266;48.816;9.154;2024-01-16T13:37:19;13.00;29.00
8459;DHT22;4266;48.816;9.154;2024-01-16T13:39:42;13.00;29.30
8459;DHT22;4266;48.816;9.154;2024-01-16T13:42:08;12.90;29.00
8459;DHT22;4266;48.816;9.154;2024-01-16T13:44:33;12.90;29.00
8459;DHT22;4266;48.816;9.154;2024-01-16T13:46:59;12.30;29.00
8459;DHT22;4266;48.816;9.154;2024-01-16T13:49:25;11.80;29.20
8459;DHT22;4266;48.816;9.154;2024-01-16T13:51:51;11.70;29.20
8459;DHT22;4266;48.816;9.154;2024-01-16T13:54:17;11.80;29.40
8459;DHT22;4266;48.816;9.154;2024-01-16T13:56:42;11.40;29.10
8459;DHT22;4266;48.816;9.154;2024-01-16T13:59:08;10.50;29.30
8459;DHT22;4266;48.816;9.154;2024-01-16T14:01:34;10.30;29.20
8459;DHT22;4266;48.816;9.154;2024-01-16T14:03:59;10.60;29.40
8459;DHT22;4266;48.816;9.154;2024-01-16T14:06:25;9.60;30.00
8459;DHT22;4266;48.816;9.154;2024-01-16T14:08:51;10.40;29.50
8459;DHT22;4266;48.816;9.154;2024-01-16T14:11:16;9.80;30.10
8459;DHT22;4266;48.816;9.154;2024-01-16T14:13:43;7.30;31.40
8459;DHT22;4266;48.816;9.154;2024-01-16T14:16:08;7.30;31.30
8459;DHT22;4266;48.816;9.154;2024-01-16T14:18:35;6.60;31.60
8459;DHT22;4266;48.816;9.154;2024-01-16T14:21:01;6.50;31.50
8459;DHT22;4266;48.816;9.154;2024-01-16T14:23:26;6.40;31.70
8459;DHT22;4266;48.816;9.154;2024-01-16T14:25:52;6.10;31.70
8459;DHT22;4266;48.816;9.154;2024-01-16T14:28:17;5.60;31.70
8459;DHT22;4266;48.816;9.154;2024-01-16T14:30:43;5.00;32.10
8459;DHT22;4266;48.816;9.154;2024-01-16T14:33:09;5.50;32.50
8459;DHT22;4266;48.816;9.154;2024-01-16T14:35:34;6.00;32.40
8459;DHT22;4266;48.816;9.154;2024-01-16T14:38:00;6.80;32.10
8459;DHT22;4266;48.816;9.154;2024-01-16T14:40:26;5.60;31.90
8459;DHT22;4266;48.816;9.154;2024-01-16T14:42:52;4.60;33.40
8459;DHT22;4266;48.816;9.154;2024-01-16T14:45:18;4.50;33.00
8459;DHT22;4266;48.816;9.154;2024-01-16T14:47:43;4.60;33.60
8459;DHT22;4266;48.816;9.154;2024-01-16T14:50:09;4.30;33.20
8459;DHT22;4266;48.816;9.154;2024-01-16T14:52:35;4.00;33.60
8459;DHT22;4266;48.816;9.154;2024-01-16T14:55:01;3.60;33.90
8459;DHT22;4266;48.816;9.154;2024-01-16T14:57:27;3.60;33.90
8459;DHT22;4266;48.816;9.154;2024-01-16T14:59:53;3.40;34.50
8459;DHT22;4266;48.816;9.154;2024-01-16T15:02:18;3.20;35.10
8459;DHT22;4266;48.816;9.154;2024-01-16T15:04:45;2.90;36.30
8459;DHT22;4266;48.816;9.154;2024-01-16T15:07:10;2.80;36.20
8459;DHT22;4266;48.816;9.154;2024-01-16T15:09:36;2.80;36.40
8459;DHT22;4266;48.816;9.154;2024-01-16T15:12:02;2.60;36.60
8459;DHT22;4266;48.816;9.154;2024-01-16T15:14:30;2.30;37.30
8459;DHT22;4266;48.816;9.154;2024-01-16T15:16:55;2.30;37.30
8459;DHT22;4266;48.816;9.154;2024-01-16T15:19:22;2.00;37.40
8459;DHT22;4266;48.816;9.154;2024-01-16T15:21:47;2.00;37.40
8459;DHT22;4266;48.816;9.154;2024-01-16T15:24:13;2.00;37.60
8459;DHT22;4266;48.816;9.154;2024-01-16T15:26:39;2.00;37.80
8459;DHT22;4266;48.816;9.154;2024-01-16T15:29:04;1.90;37.90
8459;DHT22;4266;48.816;9.154;2024-01-16T15:31:31;1.70;38.30
8459;DHT22;4266;48.816;9.154;2024-01-16T15:33:56;1.60;38.20
8459;DHT22;4266;48.816;9.154;2024-01-16T15:36:22;1.50;39.30
8459;DHT22;4266;48.816;9.154;2024-01-16T15:38:48;1.50;38.80
8459;DHT22;4266;48.816;9.154;2024-01-16T15:41:13;1.20;39.10
8459;DHT22;4266;48.816;9.154;2024-01-16T15:43:39;1.10;39.00
8459;DHT22;4266;48.816;9.154;2024-01-16T15:46:05;0.90;39.20
8459;DHT22;4266;48.816;9.154;2024-01-16T15:48:30;0.80;40.20
8459;DHT22;4266;48.816;9.154;2024-01-16T15:50:56;0.70;40.20
8459;DHT22;4266;48.816;9.154;2024-01-16T15:53:22;0.70;39.80
8459;DHT22;4266;48.816;9.154;2024-01-16T15:55:48;0.70;40.00
8459;DHT22;4266;48.816;9.154;2024-01-16T15:58:14;0.40;41.10
8459;DHT22;4266;48.816;9.154;2024-01-16T16:00:40;0.30;41.00
8459;DHT22;4266;48.816;9.154;2024-01-16T16:03:06;0.30;40.50
8459;DHT22;4266;48.816;9.154;2024-01-16T16:05:31;0.10;40.80
8459;DHT22;4266;48.816;9.154;2024-01-16T16:07:57;0.00;41.60
8459;DHT22;4266;48.816;9.154;2024-01-16T16:10:23;-0.30;42.00
8459;DHT22;4266;48.816;9.154;2024-01-16T16:12:49;-0.40;41.90